Time;durP1;ratioP1;P1;durP2;ratioP2;P2;SDS_P1;SDS_P2;PMS_P1;PMS_P2;Temp;Humidity;BMP_temperature;BMP_pressure;BME280_temperature;BME280_humidity;BME280_pressure;Samples;Min_cycle;Max_cycle;Signal;HPM_P1;HPM_P2
2022/04/10 00:00:52;;;;;;;3.67;1.30;;;11.20;73.10;;;;;;5016748;28;20025;-78
2022/04/10 00:03:19;;;;;;;4.15;1.33;;;11.20;73.10;;;;;;5033576;28;20033;-78
2022/04/10 00:05:45;;;;;;;6.53;1.67;;;11.20;73.20;;;;;;5016466;28;20083;-77
2022/04/10 00:08:10;;;;;;;4.03;1.35;;;11.20;73.10;;;;;;5016331;28;20022;-78
2022/04/10 00:10:36;;;;;;;4.50;1.30;;;11.20;73.10;;;;;;5021421;28;20505;-78
2022/04/10 00:13:02;;;;;;;4.47;1.48;;;11.20;73.20;;;;;;5036176;28;20017;-78
2022/04/10 00:15:27;;;;;;;3.88;1.33;;;11.20;73.30;;;;;;5031763;28;20025;-78
2022/04/10 00:17:53;;;;;;;3.60;1.20;;;11.20;73.30;;;;;;5024305;28;20027;-78
2022/04/10 00:20:18;;;;;;;4.05;1.33;;;11.20;73.40;;;;;;5035545;28;20056;-79
2022/04/10 00:22:47;;;;;;;4.22;1.55;;;11.20;73.40;;;;;;5018252;28;20037;-78
2022/04/10 00:25:15;;;;;;;4.47;1.65;;;11.20;73.40;;;;;;5034046;28;20068;-78
2022/04/10 00:27:41;;;;;;;5.35;1.60;;;11.20;73.40;;;;;;5035024;28;20045;-78
2022/04/10 00:30:11;;;;;;;4.50;1.33;;;11.20;73.40;;;;;;5047520;28;20021;-77
2022/04/10 00:32:38;;;;;;;5.00;1.67;;;11.20;73.40;;;;;;5035972;28;20037;-78
2022/04/10 00:35:07;;;;;;;3.63;1.38;;;11.20;73.40;;;;;;5035832;28;20486;-78
2022/04/10 00:37:34;;;;;;;5.25;1.38;;;11.10;73.30;;;;;;5036003;28;20032;-78
2022/04/10 00:39:59;;;;;;;4.38;1.45;;;11.20;73.30;;;;;;5036072;28;20029;-77
2022/04/10 00:42:36;;;;;;;4.30;1.40;;;11.20;73.40;;;;;;5036600;28;20028;-78
2022/04/10 00:45:01;;;;;;;5.75;1.65;;;11.10;73.30;;;;;;5027049;28;20032;-78
2022/04/10 00:47:27;;;;;;;5.88;1.63;;;11.10;72.80;;;;;;5015384;28;20104;-78
2022/04/10 00:49:55;;;;;;;4.78;1.50;;;11.20;73.40;;;;;;5027687;28;20025;-78
2022/04/10 00:52:21;;;;;;;5.40;1.50;;;11.20;73.40;;;;;;5033703;28;20057;-78
2022/04/10 00:54:46;;;;;;;4.30;1.50;;;11.10;73.40;;;;;;5034820;28;20065;-78
2022/04/10 00:57:12;;;;;;;4.43;1.60;;;11.20;73.20;;;;;;5035161;28;20029;-78
2022/04/10 00:59:39;;;;;;;4.85;1.60;;;11.10;73.90;;;;;;5022000;28;20033;-78
2022/04/10 01:02:05;;;;;;;5.43;1.65;;;11.20;73.40;;;;;;5035382;28;20025;-78
2022/04/10 01:04:31;;;;;;;4.40;1.50;;;11.10;73.30;;;;;;5035230;28;20059;-78
2022/04/10 01:06:59;;;;;;;3.33;1.27;;;11.10;73.30;;;;;;5031243;28;20044;-78
2022/04/10 01:09:26;;;;;;;3.75;1.50;;;11.10;73.40;;;;;;5033327;28;20104;-78
2022/04/10 01:11:53;;;;;;;4.50;1.63;;;11.10;73.40;;;;;;5033050;28;20120;-78
2022/04/10 01:14:19;;;;;;;3.80;1.50;;;11.10;73.40;;;;;;5033245;28;20021;-78
2022/04/10 01:16:46;;;;;;;4.38;1.30;;;11.10;73.40;;;;;;5021919;28;20116;-78
2022/04/10 01:19:12;;;;;;;5.68;1.52;;;11.10;73.40;;;;;;5033201;28;20393;-78
2022/04/10 01:21:40;;;;;;;4.75;1.73;;;11.10;73.50;;;;;;5048893;28;20021;-78
2022/04/10 01:24:06;;;;;;;3.67;1.35;;;11.00;73.30;;;;;;5029612;28;20155;-78
2022/04/10 01:26:32;;;;;;;5.60;1.58;;;11.10;73.40;;;;;;5030337;28;20116;-78
2022/04/10 01:29:07;;;;;;;4.63;1.20;;;11.10;73.30;;;;;;5030302;28;20057;-78
2022/04/10 01:31:36;;;;;;;4.20;1.40;;;11.10;73.40;;;;;;5028929;28;20024;-78
2022/04/10 01:34:05;;;;;;;3.75;1.30;;;11.10;73.30;;;;;;5052757;28;20376;-78
2022/04/10 01:36:31;;;;;;;3.60;1.40;;;11.10;73.40;;;;;;5040723;28;20013;-78
2022/04/10 01:38:58;;;;;;;4.15;1.40;;;11.10;73.30;;;;;;5052797;28;20025;-78
2022/04/10 01:41:25;;;;;;;4.68;1.50;;;11.10;73.40;;;;;;5034089;28;20105;-78
2022/04/10 01:43:52;;;;;;;4.25;1.48;;;11.10;73.40;;;;;;5015920;28;20025;-78
2022/04/10 01:46:18;;;;;;;3.65;1.42;;;11.10;73.20;;;;;;5025413;28;20036;-78
2022/04/10 01:48:44;;;;;;;2.97;1.35;;;11.10;73.40;;;;;;5034709;28;20563;-78
2022/04/10 01:51:10;;;;;;;5.80;1.60;;;11.10;73.40;;;;;;5025881;28;20029;-77
2022/04/10 01:53:35;;;;;;;5.40;1.60;;;11.00;73.30;;;;;;5034846;28;20040;-78
2022/04/10 01:56:02;;;;;;;4.80;1.33;;;11.10;73.40;;;;;;5034442;28;20025;-78
2022/04/10 01:58:28;;;;;;;7.50;1.73;;;11.10;73.30;;;;;;5027865;28;20052;-78
2022/04/10 02:00:54;;;;;;;5.45;1.55;;;11.10;73.40;;;;;;5042822;28;20490;-78
2022/04/10 02:03:19;;;;;;;5.68;1.48;;;11.10;73.20;;;;;;5033313;28;20032;-78
2022/04/10 02:05:44;;;;;;;4.85;1.48;;;11.00;73.40;;;;;;5047783;28;20088;-76
2022/04/10 02:08:10;;;;;;;6.32;1.45;;;11.10;73.40;;;;;;5051673;28;20029;-78
2022/04/10 02:10:36;;;;;;;3.90;1.52;;;11.10;73.40;;;;;;5034941;28;20017;-78
2022/04/10 02:13:01;;;;;;;5.22;1.60;;;11.00;73.30;;;;;;5034507;28;20194;-78
2022/04/10 02:15:27;;;;;;;3.30;1.40;;;11.00;73.30;;;;;;5034542;28;20117;-79
2022/04/10 02:17:52;;;;;;;3.50;1.38;;;11.00;73.30;;;;;;5052129;28;20021;-78
2022/04/10 02:20:18;;;;;;;4.97;1.63;;;11.10;73.40;;;;;;5018113;28;20021;-78
2022/04/10 02:22:44;;;;;;;4.28;1.33;;;11.00;73.30;;;;;;5043877;28;20092;-78
2022/04/10 02:25:09;;;;;;;4.00;1.40;;;11.00;73.30;;;;;;5014791;28;20121;-78
2022/04/10 02:27:35;;;;;;;4.35;1.80;;;11.10;73.20;;;;;;5018590;28;20033;-78
2022/04/10 02:30:01;;;;;;;6.60;1.50;;;11.10;73.40;;;;;;5018609;28;20028;-78
2022/04/10 02:32:29;;;;;;;4.13;1.40;;;11.10;73.40;;;;;;5018178;28;20029;-78
2022/04/10 02:34:54;;;;;;;5.32;1.48;;;11.00;73.30;;;;;;5068485;22;20056;-79
2022/04/10 02:37:20;;;;;;;5.13;1.63;;;11.00;73.30;;;;;;5069432;28;20028;-81
2022/04/10 02:39:45;;;;;;;5.60;1.48;;;11.00;73.20;;;;;;5059351;28;20032;-79
2022/04/10 02:42:11;;;;;;;4.70;1.52;;;11.00;73.20;;;;;;5076613;28;20035;-81
2022/04/10 02:44:36;;;;;;;5.65;1.75;;;11.00;73.20;;;;;;5078164;28;20032;-81
2022/04/10 02:47:02;;;;;;;4.80;1.58;;;11.00;73.20;;;;;;5077795;28;20024;-81
2022/04/10 02:49:27;;;;;;;6.72;2.13;;;11.00;73.20;;;;;;5077900;28;20031;-81
2022/04/10 02:51:53;;;;;;;4.80;1.88;;;11.00;73.20;;;;;;5076268;28;20028;-82
2022/04/10 02:54:18;;;;;;;4.57;1.65;;;11.00;73.20;;;;;;5077640;28;20020;-82
2022/04/10 02:56:44;;;;;;;7.80;1.60;;;11.10;73.30;;;;;;5077953;28;20439;-80
2022/04/10 02:59:09;;;;;;;2.75;1.23;;;11.00;73.50;;;;;;5073563;28;20036;-81
2022/04/10 03:01:35;;;;;;;4.70;1.40;;;11.00;73.30;;;;;;5074325;28;20154;-81
2022/04/10 03:04:01;;;;;;;5.70;1.80;;;11.00;73.20;;;;;;5075732;28;20035;-80
2022/04/10 03:06:26;;;;;;;5.18;1.70;;;11.00;73.30;;;;;;5064633;28;20025;-82
2022/04/10 03:08:52;;;;;;;6.30;1.70;;;11.00;73.20;;;;;;5071630;28;20470;-80
2022/04/10 03:11:18;;;;;;;4.72;1.70;;;11.00;73.20;;;;;;5077960;28;20027;-81
2022/04/10 03:13:45;;;;;;;6.38;1.55;;;11.00;73.20;;;;;;5067311;28;20371;-81
2022/04/10 03:16:11;;;;;;;4.05;1.50;;;11.00;73.10;;;;;;5066659;28;20032;-81
2022/04/10 03:18:36;;;;;;;4.78;1.55;;;11.00;73.10;;;;;;5077959;28;20052;-81
2022/04/10 03:21:02;;;;;;;5.50;1.85;;;11.00;73.20;;;;;;5075570;28;20473;-79
2022/04/10 03:23:28;;;;;;;5.10;1.65;;;11.00;73.10;;;;;;5075642;28;20058;-79
2022/04/10 03:25:53;;;;;;;4.35;1.60;;;11.00;73.00;;;;;;5073579;28;20029;-82
2022/04/10 03:28:19;;;;;;;4.70;1.80;;;11.00;73.00;;;;;;5077208;28;20389;-81
2022/04/10 03:30:45;;;;;;;5.72;1.75;;;11.00;73.00;;;;;;5077766;28;20020;-80
2022/04/10 03:33:10;;;;;;;5.70;2.05;;;11.00;73.00;;;;;;5071565;28;20036;-81
2022/04/10 03:35:36;;;;;;;6.13;1.80;;;11.00;73.00;;;;;;5071647;28;20037;-80
2022/04/10 03:38:02;;;;;;;6.13;2.08;;;11.00;73.00;;;;;;5070686;28;20466;-80
2022/04/10 03:40:27;;;;;;;4.22;1.85;;;10.90;73.00;;;;;;5077841;28;20025;-79
2022/04/10 03:42:53;;;;;;;5.40;2.00;;;11.00;73.00;;;;;;5077064;28;20052;-81
2022/04/10 03:45:18;;;;;;;5.43;1.95;;;11.00;73.00;;;;;;5072980;28;20023;-80
2022/04/10 03:47:44;;;;;;;5.63;1.80;;;11.00;73.00;;;;;;5076653;28;20397;-83
2022/04/10 03:50:09;;;;;;;5.32;1.63;;;11.00;72.90;;;;;;5067959;28;20025;-80
2022/04/10 03:52:35;;;;;;;4.93;1.60;;;11.00;72.90;;;;;;5067918;28;20021;-79
2022/04/10 03:55:00;;;;;;;5.30;2.17;;;11.00;72.80;;;;;;5077143;28;20064;-81
2022/04/10 03:57:26;;;;;;;6.00;1.65;;;11.00;73.00;;;;;;5076448;28;20482;-82
2022/04/10 03:59:52;;;;;;;4.68;1.50;;;11.00;73.00;;;;;;5077793;28;20074;-80
2022/04/10 04:02:17;;;;;;;5.93;1.98;;;11.00;72.90;;;;;;5072064;28;20087;-80
2022/04/10 04:04:43;;;;;;;5.47;1.85;;;11.00;73.00;;;;;;5062016;28;20021;-79
2022/04/10 04:07:08;;;;;;;4.75;1.90;;;11.00;73.50;;;;;;5061329;28;20116;-80
2022/04/10 04:09:34;;;;;;;5.28;1.92;;;11.00;73.00;;;;;;5056648;28;20053;-80
2022/04/10 04:12:00;;;;;;;4.65;1.48;;;11.00;72.80;;;;;;5060838;28;20719;-80
2022/04/10 04:14:25;;;;;;;4.57;1.70;;;11.00;72.80;;;;;;5059131;28;20021;-79
2022/04/10 04:16:50;;;;;;;4.50;1.67;;;11.00;72.90;;;;;;5076042;28;20021;-79
2022/04/10 04:19:16;;;;;;;3.35;1.40;;;11.00;72.70;;;;;;5076185;28;20099;-79
2022/04/10 04:21:42;;;;;;;5.15;1.75;;;11.00;72.90;;;;;;5059416;28;20025;-78
2022/04/10 04:24:07;;;;;;;6.55;2.05;;;11.00;72.80;;;;;;5076059;28;20101;-80
2022/04/10 04:26:33;;;;;;;6.05;2.13;;;10.90;72.60;;;;;;5075175;28;20025;-80
2022/04/10 04:28:58;;;;;;;6.00;1.90;;;11.00;72.80;;;;;;5077603;28;20028;-79
2022/04/10 04:31:24;;;;;;;4.90;1.73;;;11.00;72.90;;;;;;5075055;28;20025;-79
2022/04/10 04:33:49;;;;;;;4.90;1.70;;;11.00;72.80;;;;;;5072760;28;20067;-80
2022/04/10 04:36:16;;;;;;;5.82;2.15;;;11.00;72.70;;;;;;5062048;28;20438;-81
2022/04/10 04:38:42;;;;;;;4.75;1.80;;;11.00;72.80;;;;;;5077356;28;20032;-79
2022/04/10 04:41:10;;;;;;;6.40;1.80;;;11.00;72.70;;;;;;5072036;28;20033;-79
2022/04/10 04:43:36;;;;;;;4.80;1.80;;;11.00;72.60;;;;;;5071123;28;20036;-79
2022/04/10 04:46:01;;;;;;;5.45;2.00;;;11.00;72.50;;;;;;5076040;28;20048;-81
2022/04/10 04:48:27;;;;;;;6.70;2.00;;;11.00;72.60;;;;;;5075534;28;20113;-79
2022/04/10 04:50:53;;;;;;;5.50;1.98;;;10.90;72.50;;;;;;5064443;28;20036;-81
2022/04/10 04:53:18;;;;;;;6.95;2.00;;;11.00;72.50;;;;;;5064002;28;20029;-80
2022/04/10 04:55:44;;;;;;;6.13;2.30;;;10.90;72.40;;;;;;5062716;28;20033;-81
2022/04/10 04:58:09;;;;;;;4.72;1.83;;;10.90;72.50;;;;;;5074502;28;20039;-80
2022/04/10 05:00:34;;;;;;;4.72;1.77;;;10.90;72.40;;;;;;5074870;28;20428;-79
2022/04/10 05:03:00;;;;;;;6.13;2.22;;;10.90;72.40;;;;;;5071661;28;20033;-79
2022/04/10 05:05:25;;;;;;;5.03;2.15;;;11.00;72.40;;;;;;5071513;28;20382;-79
2022/04/10 05:07:51;;;;;;;5.88;2.42;;;11.00;72.30;;;;;;5064036;28;20029;-78
2022/04/10 05:10:17;;;;;;;5.78;2.10;;;10.90;72.20;;;;;;5060735;28;20024;-78
2022/04/10 05:12:42;;;;;;;5.95;2.10;;;11.00;72.30;;;;;;5072864;28;20020;-78
2022/04/10 05:15:08;;;;;;;6.13;2.30;;;11.00;72.20;;;;;;5057314;28;20029;-78
2022/04/10 05:17:35;;;;;;;6.55;2.40;;;10.90;72.20;;;;;;5052149;28;20033;-78
2022/04/10 05:20:01;;;;;;;5.68;2.10;;;11.00;72.10;;;;;;5051510;28;20032;-79
2022/04/10 05:22:26;;;;;;;6.60;2.17;;;11.00;72.20;;;;;;5051476;28;20501;-79
2022/04/10 05:24:52;;;;;;;6.00;2.47;;;11.00;72.20;;;;;;5058637;28;20024;-79
2022/04/10 05:27:18;;;;;;;7.55;2.70;;;11.00;72.20;;;;;;5071610;28;20095;-78
2022/04/10 05:29:43;;;;;;;4.78;2.20;;;11.00;72.10;;;;;;5071509;28;20029;-79
2022/04/10 05:32:10;;;;;;;6.35;2.38;;;11.00;72.10;;;;;;5064255;28;20022;-79
2022/04/10 05:34:35;;;;;;;6.38;2.45;;;10.90;72.00;;;;;;5057667;28;20060;-78
2022/04/10 05:37:01;;;;;;;7.07;2.50;;;11.00;72.00;;;;;;5071161;28;20028;-79
2022/04/10 05:39:27;;;;;;;5.93;2.53;;;11.00;72.00;;;;;;5055089;28;20076;-79
2022/04/10 05:41:52;;;;;;;7.35;2.53;;;11.00;71.90;;;;;;5071230;28;20493;-80
2022/04/10 05:44:18;;;;;;;6.68;2.50;;;11.00;71.90;;;;;;5071113;28;20024;-80
2022/04/10 05:46:43;;;;;;;6.57;2.53;;;11.00;71.90;;;;;;5086687;28;20028;-81
2022/04/10 05:49:09;;;;;;;4.97;2.20;;;11.00;71.80;;;;;;5093252;28;20024;-79
2022/04/10 05:51:34;;;;;;;7.50;2.60;;;11.00;71.80;;;;;;5075955;28;20392;-79
2022/04/10 05:54:00;;;;;;;6.32;2.75;;;11.00;71.70;;;;;;5059665;28;20040;-80
2022/04/10 05:56:25;;;;;;;7.38;2.72;;;11.00;71.50;;;;;;5070879;28;20028;-79
2022/04/10 05:58:51;;;;;;;6.20;2.53;;;11.00;71.50;;;;;;5069199;28;20029;-82
2022/04/10 06:01:16;;;;;;;6.45;2.42;;;11.00;71.50;;;;;;5053632;28;20029;-79
2022/04/10 06:03:42;;;;;;;8.02;2.53;;;11.10;71.40;;;;;;5071509;28;20024;-80
2022/04/10 06:06:08;;;;;;;5.95;2.40;;;11.00;71.40;;;;;;5055204;28;20084;-80
2022/04/10 06:08:33;;;;;;;7.68;2.80;;;11.10;71.50;;;;;;5073678;28;20386;-79
2022/04/10 06:10:59;;;;;;;5.60;2.60;;;11.10;71.40;;;;;;5075674;28;20423;-79
2022/04/10 06:13:24;;;;;;;7.90;2.90;;;11.10;71.40;;;;;;5075798;28;20025;-80
2022/04/10 06:15:50;;;;;;;5.47;2.53;;;11.10;71.40;;;;;;5074485;28;20028;-78
2022/04/10 06:18:16;;;;;;;6.50;2.45;;;11.20;71.50;;;;;;5074743;28;20029;-80
2022/04/10 06:20:42;;;;;;;7.47;2.70;;;11.20;71.40;;;;;;5075548;28;20583;-78
2022/04/10 06:23:08;;;;;;;5.95;2.55;;;11.20;71.30;;;;;;5074838;28;20131;-80
2022/04/10 06:25:33;;;;;;;6.63;2.40;;;11.20;71.20;;;;;;5062902;28;20086;-80
2022/04/10 06:27:59;;;;;;;6.32;2.53;;;11.20;71.20;;;;;;5055729;28;20112;-79
2022/04/10 06:30:24;;;;;;;6.43;2.30;;;11.20;71.10;;;;;;5055914;28;20057;-79
2022/04/10 06:32:50;;;;;;;6.82;2.47;;;11.20;71.10;;;;;;5070214;28;20075;-79
2022/04/10 06:35:15;;;;;;;5.45;2.65;;;11.20;70.90;;;;;;5054024;28;20112;-77
2022/04/10 06:37:42;;;;;;;6.03;2.30;;;11.30;71.10;;;;;;5064241;28;20029;-77
2022/04/10 06:40:08;;;;;;;7.22;2.60;;;11.30;71.10;;;;;;5053726;28;20027;-77
2022/04/10 06:42:33;;;;;;;6.00;2.50;;;11.30;71.00;;;;;;5053423;28;20029;-76
2022/04/10 06:44:59;;;;;;;6.45;2.38;;;11.30;70.90;;;;;;5054375;28;20021;-77
2022/04/10 06:47:27;;;;;;;5.43;2.40;;;11.30;70.90;;;;;;5053008;28;20014;-77
2022/04/10 06:49:53;;;;;;;5.32;2.40;;;11.40;70.90;;;;;;5053112;28;20074;-78
2022/04/10 06:52:18;;;;;;;9.73;2.70;;;11.40;71.00;;;;;;5053129;28;20081;-76
2022/04/10 06:54:44;;;;;;;5.63;2.40;;;11.30;71.00;;;;;;5058862;28;20063;-76
2022/04/10 06:57:09;;;;;;;6.65;2.55;;;11.30;71.00;;;;;;5058687;28;20028;-75
2022/04/10 06:59:35;;;;;;;5.38;2.33;;;11.30;70.90;;;;;;5054704;28;20163;-78
2022/04/10 07:02:01;;;;;;;6.93;2.58;;;11.30;71.10;;;;;;5065066;28;20206;-77
2022/04/10 07:04:26;;;;;;;5.70;2.13;;;11.30;71.10;;;;;;5055393;28;20035;-76
2022/04/10 07:06:52;;;;;;;7.90;2.47;;;11.20;71.00;;;;;;5053290;28;20029;-77
2022/04/10 07:09:18;;;;;;;4.95;2.38;;;11.20;70.90;;;;;;5053147;28;20108;-76
2022/04/10 07:11:45;;;;;;;6.10;2.22;;;11.30;71.20;;;;;;5054203;28;20079;-78
2022/04/10 07:14:11;;;;;;;6.60;2.28;;;11.20;71.60;;;;;;5053385;28;20079;-76
2022/04/10 07:16:36;;;;;;;5.40;2.28;;;11.20;71.20;;;;;;5063080;28;20807;-78
2022/04/10 07:19:02;;;;;;;6.93;2.28;;;11.20;71.00;;;;;;5066031;28;20029;-77
2022/04/10 07:24:12;;;;;;;6.80;2.30;;;11.20;70.90;;;;;;5064032;28;20048;-77
2022/04/10 07:26:37;;;;;;;5.53;2.17;;;11.30;70.80;;;;;;5054434;28;20482;-78
2022/04/10 07:29:03;;;;;;;5.75;2.25;;;11.40;70.80;;;;;;5056005;28;20483;-77
2022/04/10 07:31:29;;;;;;;5.72;2.47;;;11.40;70.80;;;;;;5054768;28;20076;-77
2022/04/10 07:33:54;;;;;;;4.80;2.15;;;11.40;70.90;;;;;;5054928;28;20035;-77
2022/04/10 07:36:20;;;;;;;6.55;2.40;;;11.50;70.90;;;;;;5059162;28;20548;-77
2022/04/10 07:38:46;;;;;;;6.30;2.33;;;11.50;70.70;;;;;;5073564;28;20028;-77
2022/04/10 07:41:11;;;;;;;6.03;2.22;;;11.50;70.60;;;;;;5074134;28;20085;-77
2022/04/10 07:43:37;;;;;;;6.43;2.60;;;11.60;70.50;;;;;;5074082;28;20020;-78
2022/04/10 07:48:46;;;;;;;6.95;2.33;;;11.60;70.30;;;;;;5074596;28;20093;-77
2022/04/10 07:51:12;;;;;;;6.93;2.60;;;11.60;70.40;;;;;;5074534;28;20115;-77
2022/04/10 07:53:37;;;;;;;5.50;2.10;;;11.60;70.40;;;;;;5073478;28;20506;-78
2022/04/10 07:56:03;;;;;;;7.40;2.45;;;11.60;70.50;;;;;;5069948;28;20029;-77
2022/04/10 07:58:28;;;;;;;5.88;2.22;;;11.60;70.30;;;;;;5066841;28;20127;-78
2022/04/10 08:00:54;;;;;;;6.53;2.30;;;11.60;70.30;;;;;;5053634;28;20032;-79
2022/04/10 08:03:19;;;;;;;6.97;2.30;;;11.60;70.40;;;;;;5055353;28;20380;-78
2022/04/10 08:05:45;;;;;;;5.80;2.25;;;11.60;70.50;;;;;;5053634;28;20032;-77
2022/04/10 08:08:11;;;;;;;4.18;1.95;;;11.60;70.40;;;;;;5075694;28;20028;-79
2022/04/10 08:10:37;;;;;;;6.45;2.25;;;11.50;70.50;;;;;;5066091;28;20119;-79
2022/04/10 08:13:03;;;;;;;5.38;2.10;;;11.60;70.60;;;;;;5073720;28;20051;-78
2022/04/10 08:15:29;;;;;;;7.35;2.13;;;11.50;70.60;;;;;;5065729;28;20057;-78
2022/04/10 08:17:56;;;;;;;5.03;1.92;;;11.50;70.70;;;;;;5059595;28;20040;-80
2022/04/10 08:20:23;;;;;;;6.05;2.15;;;11.50;70.70;;;;;;5072879;28;20024;-77
2022/04/10 08:22:50;;;;;;;6.13;2.10;;;11.50;70.70;;;;;;5072254;28;20063;-76
2022/04/10 08:25:16;;;;;;;8.35;2.42;;;11.50;70.60;;;;;;5059554;28;20119;-77
2022/04/10 08:27:42;;;;;;;6.63;2.22;;;11.50;70.80;;;;;;5051632;28;20100;-78
2022/04/10 08:30:09;;;;;;;6.88;2.28;;;11.50;70.70;;;;;;5058375;28;20029;-77
2022/04/10 08:32:40;;;;;;;6.45;2.13;;;11.50;70.70;;;;;;5052688;28;20047;-76
2022/04/10 08:35:06;;;;;;;5.55;2.20;;;11.50;70.70;;;;;;5062077;28;20039;-76
2022/04/10 08:37:32;;;;;;;6.22;2.00;;;11.50;70.70;;;;;;5069690;28;20048;-78
2022/04/10 08:39:58;;;;;;;5.80;2.00;;;11.50;70.80;;;;;;5086644;28;20028;-78
2022/04/10 08:42:23;;;;;;;5.72;2.00;;;11.50;70.60;;;;;;5052641;28;20028;-77
2022/04/10 08:44:49;;;;;;;5.65;2.25;;;11.50;70.40;;;;;;5053049;28;20486;-77
2022/04/10 08:47:20;;;;;;;6.00;2.00;;;11.60;70.30;;;;;;5062741;28;20478;-77
2022/04/10 08:49:50;;;;;;;5.88;1.80;;;11.60;70.30;;;;;;5072860;28;20055;-77
2022/04/10 08:52:17;;;;;;;9.80;2.30;;;11.60;70.40;;;;;;5068315;28;20078;-77
2022/04/10 08:54:44;;;;;;;8.75;2.25;;;11.60;70.40;;;;;;5051021;28;20044;-77
2022/04/10 08:57:09;;;;;;;5.85;1.90;;;11.50;70.60;;;;;;5063147;28;20028;-77
2022/04/10 08:59:35;;;;;;;7.93;2.30;;;11.50;70.80;;;;;;5054223;28;20031;-76
2022/04/10 09:02:00;;;;;;;7.05;2.00;;;11.40;71.00;;;;;;5057168;28;20040;-78
2022/04/10 09:04:26;;;;;;;9.20;2.42;;;11.40;70.90;;;;;;5068827;28;20025;-76
2022/04/10 09:07:07;;;;;;;10.50;2.55;;;11.30;71.00;;;;;;5066255;28;20040;-76
2022/04/10 09:09:33;;;;;;;6.00;2.10;;;11.30;71.00;;;;;;5049425;28;20095;-76
2022/04/10 09:12:00;;;;;;;7.88;2.45;;;11.30;71.30;;;;;;5048999;28;20555;-77
2022/04/10 09:14:28;;;;;;;7.70;2.17;;;11.30;71.40;;;;;;5048612;28;20513;-77
2022/04/10 09:17:17;;;;;;;7.32;2.05;;;11.30;71.50;;;;;;5049965;28;20051;-75
2022/04/10 09:19:51;;;;;;;5.30;1.63;;;11.30;71.50;;;;;;5049874;28;20375;-76
2022/04/10 09:22:23;;;;;;;8.13;2.10;;;11.20;71.40;;;;;;5049352;28;20490;-76
2022/04/10 09:25:09;;;;;;;6.28;1.90;;;11.30;71.50;;;;;;5052015;28;20036;-77
2022/04/10 09:27:38;;;;;;;8.63;1.80;;;11.30;71.60;;;;;;5070407;28;20017;-77
2022/04/10 09:30:05;;;;;;;6.85;2.00;;;11.30;71.50;;;;;;5070864;28;20499;-78
2022/04/10 09:32:51;;;;;;;6.47;1.65;;;11.20;71.60;;;;;;5071023;28;20021;-76
2022/04/10 09:35:22;;;;;;;7.65;2.03;;;11.20;71.80;;;;;;5067354;28;20742;-77
2022/04/10 09:37:51;;;;;;;6.47;1.73;;;11.20;71.90;;;;;;5068482;28;20032;-76
2022/04/10 09:40:31;;;;;;;6.90;1.80;;;11.20;72.00;;;;;;5064794;28;20029;-77
2022/04/10 09:42:58;;;;;;;7.63;2.03;;;11.20;71.90;;;;;;5048251;28;20378;-76
2022/04/10 09:45:35;;;;;;;7.65;2.28;;;11.30;71.60;;;;;;5048434;28;20486;-77
2022/04/10 09:48:20;;;;;;;6.28;1.70;;;11.40;71.20;;;;;;5055683;28;20103;-76
2022/04/10 09:50:46;;;;;;;6.30;1.60;;;11.50;70.80;;;;;;5070204;28;20028;-77
2022/04/10 09:53:12;;;;;;;6.45;1.80;;;11.50;70.50;;;;;;5070370;28;20028;-76
2022/04/10 09:55:39;;;;;;;4.28;1.67;;;11.60;70.40;;;;;;5064346;28;20376;-78
2022/04/10 09:58:09;;;;;;;4.78;1.73;;;11.60;70.40;;;;;;5050478;28;20108;-76
2022/04/10 10:00:38;;;;;;;5.68;1.90;;;11.60;70.40;;;;;;5067757;28;20409;-77
2022/04/10 10:03:05;;;;;;;5.88;1.90;;;11.50;70.40;;;;;;5050495;28;20478;-78
2022/04/10 10:05:31;;;;;;;4.40;1.55;;;11.60;70.40;;;;;;5050949;28;20032;-77
2022/04/10 10:07:57;;;;;;;4.80;1.40;;;11.50;70.40;;;;;;5049627;28;20029;-77
2022/04/10 10:10:24;;;;;;;5.68;1.85;;;11.50;70.40;;;;;;5068495;28;20025;-78
2022/04/10 10:12:52;;;;;;;5.93;1.77;;;11.50;70.80;;;;;;5071236;28;20036;-76
2022/04/10 10:15:18;;;;;;;5.80;1.80;;;11.50;70.50;;;;;;5069803;28;20039;-79
2022/04/10 10:17:43;;;;;;;5.57;1.70;;;11.50;70.50;;;;;;5070013;28;20024;-77
2022/04/10 10:20:10;;;;;;;5.28;1.52;;;11.40;70.60;;;;;;5069826;28;20055;-78
2022/04/10 10:22:36;;;;;;;4.90;1.58;;;11.40;70.90;;;;;;5051550;28;20401;-77
2022/04/10 10:25:33;;;;;;;5.07;1.60;;;11.40;71.00;;;;;;5049050;28;20032;-78
2022/04/10 10:28:36;;;;;;;4.70;1.50;;;11.30;71.20;;;;;;5069766;28;20094;-79
2022/04/10 10:31:32;;;;;;;5.85;1.55;;;11.30;71.40;;;;;;5069233;28;20032;-77
2022/04/10 10:34:02;;;;;;;3.67;1.48;;;11.20;71.40;;;;;;5066867;28;20021;-77
2022/04/10 10:36:29;;;;;;;4.80;1.45;;;11.20;71.50;;;;;;5050338;28;20394;-78
2022/04/10 10:38:56;;;;;;;5.47;1.50;;;11.20;71.60;;;;;;5050115;28;20110;-77
2022/04/10 10:41:22;;;;;;;4.78;1.40;;;11.20;71.70;;;;;;5055086;28;20416;-77
2022/04/10 10:43:48;;;;;;;5.00;1.50;;;11.20;71.80;;;;;;5069364;28;20029;-76
2022/04/10 10:46:28;;;;;;;5.68;1.23;;;11.10;71.80;;;;;;5069267;28;20035;-78
2022/04/10 10:49:20;;;;;;;5.25;1.67;;;11.20;71.80;;;;;;5072316;28;20017;-76
2022/04/10 10:51:50;;;;;;;4.93;1.27;;;11.20;71.90;;;;;;5067155;28;20032;-76
2022/04/10 10:54:26;;;;;;;5.22;1.80;;;11.10;71.90;;;;;;5071365;28;20016;-76
2022/04/10 10:56:51;;;;;;;4.90;1.60;;;11.20;71.80;;;;;;5070881;28;20085;-76
2022/04/10 10:59:30;;;;;;;4.68;1.40;;;11.30;71.50;;;;;;5057566;28;20032;-77
2022/04/10 11:02:18;;;;;;;3.00;1.23;;;11.40;71.00;;;;;;5051166;28;20025;-76
2022/04/10 11:04:50;;;;;;;4.10;1.38;;;11.50;70.80;;;;;;5050778;28;20025;-77
2022/04/10 11:07:19;;;;;;;4.28;1.10;;;11.50;70.60;;;;;;5050441;28;20473;-78
2022/04/10 11:09:59;;;;;;;3.20;1.02;;;11.50;70.60;;;;;;5062388;28;20028;-77
2022/04/10 11:12:32;;;;;;;5.43;1.42;;;11.60;70.50;;;;;;5061522;28;20465;-79
2022/04/10 11:14:59;;;;;;;4.35;1.30;;;11.60;70.70;;;;;;5063998;28;20526;-78
2022/04/10 11:17:30;;;;;;;3.95;1.20;;;11.60;70.60;;;;;;5062626;28;20031;-77
2022/04/10 11:20:02;;;;;;;12.68;1.70;;;11.50;70.40;;;;;;5061915;28;20025;-78
2022/04/10 11:22:33;;;;;;;36.88;3.00;;;11.60;70.60;;;;;;5064579;28;20056;-77
2022/04/10 11:25:05;;;;;;;25.60;2.50;;;11.60;70.70;;;;;;5059883;28;20028;-76
2022/04/10 11:27:41;;;;;;;26.90;2.55;;;11.60;70.70;;;;;;5055928;28;20167;-77
2022/04/10 11:30:07;;;;;;;22.75;2.40;;;11.70;70.70;;;;;;5050459;28;20036;-77
2022/04/10 11:33:07;;;;;;;23.92;2.95;;;11.70;70.60;;;;;;5053235;28;20033;-76
2022/04/10 11:35:34;;;;;;;;;;;11.80;70.60;;;;;;5065276;28;20075;-77
2022/04/10 11:38:15;;;;;;;1999.90;240.02;;;11.80;70.70;;;;;;5065293;28;20012;-77
2022/04/10 11:40:42;;;;;;;;;;;11.90;70.80;;;;;;5059076;28;20029;-76
2022/04/10 11:43:08;;;;;;;1229.40;113.80;;;12.00;70.90;;;;;;5056290;28;19912;-76
2022/04/10 11:45:35;;;;;;;860.30;72.13;;;11.90;71.00;;;;;;5054645;28;20082;-76
2022/04/10 11:48:05;;;;;;;663.15;53.13;;;11.90;71.10;;;;;;5050901;28;20052;-78
2022/04/10 11:50:30;;;;;;;464.48;37.80;;;11.90;71.50;;;;;;5078754;28;20059;-77
2022/04/10 11:53:01;;;;;;;280.70;20.25;;;12.00;71.90;;;;;;5067789;28;20056;-76
2022/04/10 11:55:47;;;;;;;436.40;32.78;;;12.00;72.50;;;;;;5067126;28;20565;-79
2022/04/10 11:58:21;;;;;;;947.55;73.50;;;12.00;72.90;;;;;;5047916;28;20421;-77
2022/04/10 12:00:51;;;;;;;887.00;69.22;;;11.90;73.00;;;;;;5048586;28;20089;-78
2022/04/10 12:03:25;;;;;;;744.42;54.85;;;11.90;72.90;;;;;;5049070;28;20660;-76
2022/04/10 12:05:51;;;;;;;722.20;48.72;;;11.80;72.90;;;;;;5055523;28;20695;-76
2022/04/10 12:08:18;;;;;;;567.80;46.50;;;11.80;73.60;;;;;;5061642;28;20092;-76
2022/04/10 12:10:54;;;;;;;435.25;31.48;;;11.70;73.10;;;;;;5055478;28;20029;-76
2022/04/10 12:13:20;;;;;;;385.55;27.65;;;11.70;73.60;;;;;;5062396;28;20024;-77
2022/04/10 12:15:45;;;;;;;300.20;21.38;;;11.70;75.00;;;;;;5057785;28;20046;-76
2022/04/10 12:18:12;;;;;;;384.52;28.95;;;11.70;73.40;;;;;;5052109;28;20032;-74
2022/04/10 12:20:43;;;;;;;212.00;16.45;;;11.80;78.90;;;;;;5054711;28;20032;-77
2022/04/10 12:23:24;;;;;;;197.18;17.27;;;11.80;77.00;;;;;;5052813;28;20025;-77
2022/04/10 12:25:50;;;;;;;366.73;23.10;;;11.80;78.10;;;;;;5051685;28;20039;-75
2022/04/10 12:28:17;;;;;;;585.80;42.65;;;11.80;77.40;;;;;;5057513;28;20106;-77
2022/04/10 12:30:43;;;;;;;371.08;23.95;;;11.70;83.60;;;;;;5051453;28;20776;-77
2022/04/10 12:33:10;;;;;;;177.27;14.63;;;11.60;78.40;;;;;;5049005;28;20035;-76
2022/04/10 12:35:37;;;;;;;147.48;13.95;;;11.50;79.90;;;;;;5056806;28;20063;-77
2022/04/10 12:38:03;;;;;;;117.38;10.32;;;11.40;77.90;;;;;;5052759;28;20119;-78
2022/04/10 12:40:29;;;;;;;117.45;10.00;;;11.30;78.70;;;;;;5058991;28;20068;-78
2022/04/10 12:43:03;;;;;;;328.27;21.00;;;11.30;75.90;;;;;;5065174;28;20049;-77
2022/04/10 12:45:30;;;;;;;914.17;72.82;;;11.40;77.00;;;;;;5063715;28;20025;-78
2022/04/10 12:47:56;;;;;;;570.47;42.85;;;11.30;75.90;;;;;;5059649;28;20037;-78
2022/04/10 12:50:23;;;;;;;394.30;25.95;;;11.30;76.80;;;;;;5060417;28;20031;-77